createdAt,value
2022-09-02T00:00:21.061Z,0.70
2022-09-02T00:01:20.050Z,0.70
2022-09-02T00:02:20.191Z,0.70
2022-09-02T00:03:20.337Z,0.80
2022-09-02T00:04:20.019Z,0.70
2022-09-02T00:05:20.007Z,0.80
2022-09-02T00:06:20.016Z,0.70
2022-09-02T00:07:19.984Z,0.90
2022-09-02T00:08:19.992Z,0.80
2022-09-02T00:09:19.962Z,0.80
2022-09-02T00:10:19.948Z,1.10
2022-09-02T00:11:19.940Z,1.10
2022-09-02T00:12:19.956Z,0.90
2022-09-02T00:13:19.928Z,0.90
2022-09-02T00:14:19.905Z,0.90
2022-09-02T00:15:19.915Z,0.90
2022-09-02T00:16:19.937Z,1.00
2022-09-02T00:17:19.872Z,0.80
2022-09-02T00:18:19.881Z,0.90
2022-09-02T00:19:19.868Z,1.00
2022-09-02T00:20:19.837Z,0.80
2022-09-02T00:21:19.844Z,0.90
2022-09-02T00:22:19.813Z,0.80
2022-09-02T00:23:19.805Z,0.90
2022-09-02T00:24:19.791Z,1.00
2022-09-02T00:25:19.778Z,0.90
2022-09-02T00:26:19.789Z,0.80
2022-09-02T00:27:19.778Z,0.80
2022-09-02T00:28:19.766Z,1.10
2022-09-02T00:29:19.733Z,0.90
2022-09-02T00:30:19.723Z,0.90
2022-09-02T00:31:19.757Z,0.80
2022-09-02T00:32:19.707Z,1.00
2022-09-02T00:33:19.750Z,0.90
2022-09-02T00:34:19.679Z,0.90
2022-09-02T00:35:19.666Z,1.00
2022-09-02T00:36:19.677Z,1.10
2022-09-02T00:37:19.647Z,0.90
2022-09-02T00:38:19.632Z,0.90
2022-09-02T00:39:19.641Z,1.00
2022-09-02T00:40:19.644Z,0.80
2022-09-02T00:41:19.619Z,0.90
2022-09-02T00:42:19.589Z,1.00
2022-09-02T00:43:19.652Z,0.70
2022-09-02T00:44:19.565Z,0.80
2022-09-02T00:45:19.575Z,0.70
2022-09-02T00:46:19.542Z,1.10
2022-09-02T00:47:19.530Z,0.90
2022-09-02T00:48:19.522Z,1.00
2022-09-02T00:49:19.526Z,0.80
2022-09-02T00:50:19.497Z,1.00
2022-09-02T00:51:19.488Z,1.00
2022-09-02T00:52:19.479Z,0.80
2022-09-02T00:53:19.575Z,0.90
2022-09-02T00:54:19.488Z,0.80
2022-09-02T00:55:19.439Z,0.90
2022-09-02T00:56:19.430Z,0.90
2022-09-02T00:57:19.439Z,1.00
2022-09-02T00:58:19.407Z,1.00
2022-09-02T00:59:19.394Z,0.90
2022-09-02T01:00:19.410Z,0.80
2022-09-02T01:01:19.544Z,1.00
2022-09-02T01:02:19.526Z,0.80
2022-09-02T01:03:19.434Z,1.00
2022-09-02T01:04:19.358Z,0.90
2022-09-02T01:05:19.326Z,0.90
2022-09-02T01:06:19.319Z,0.90
2022-09-02T01:07:19.329Z,0.80
2022-09-02T01:08:19.297Z,0.80
2022-09-02T01:09:19.284Z,0.90
2022-09-02T01:10:19.271Z,0.90
2022-09-02T01:11:19.260Z,0.80
2022-09-02T01:12:19.274Z,0.90
2022-09-02T01:13:19.307Z,1.10
2022-09-02T01:14:19.248Z,0.90
2022-09-02T01:15:19.382Z,1.10
2022-09-02T01:16:19.245Z,0.90
2022-09-02T01:17:19.193Z,0.90
2022-09-02T01:18:19.205Z,1.00
2022-09-02T01:19:19.170Z,0.80
2022-09-02T01:20:19.174Z,1.00
2022-09-02T01:21:19.147Z,0.90
2022-09-02T01:22:19.142Z,1.00
2022-09-02T01:23:19.227Z,1.00
2022-09-02T01:24:19.149Z,1.10
2022-09-02T01:25:19.104Z,1.10
2022-09-02T01:26:19.114Z,1.00
2022-09-02T01:27:19.079Z,1.00
2022-09-02T01:28:19.069Z,1.00
2022-09-02T01:29:19.076Z,1.10
2022-09-02T01:30:19.049Z,1.00
2022-09-02T01:31:19.134Z,1.20
2022-09-02T01:32:19.057Z,0.80
2022-09-02T01:33:19.056Z,0.90
2022-09-02T01:34:19.004Z,0.90
2022-09-02T01:35:18.988Z,1.00
2022-09-02T01:36:19.028Z,1.00
2022-09-02T01:37:18.968Z,1.10
2022-09-02T01:38:18.956Z,1.10
2022-09-02T01:39:18.963Z,1.00
2022-09-02T01:40:18.973Z,1.00
2022-09-02T01:41:18.945Z,1.00
2022-09-02T01:42:18.915Z,0.80
2022-09-02T01:43:18.989Z,1.00
2022-09-02T01:44:18.908Z,1.00
2022-09-02T01:45:18.879Z,1.00
2022-09-02T01:46:18.944Z,1.10
2022-09-02T01:47:18.861Z,1.20
2022-09-02T01:48:21.705Z,0.90
2022-09-02T01:49:18.832Z,0.90
2022-09-02T01:50:18.839Z,1.00
2022-09-02T01:51:18.807Z,1.20
2022-09-02T01:52:18.797Z,1.10
2022-09-02T01:53:18.894Z,1.00
2022-09-02T01:54:18.778Z,1.10
2022-09-02T01:55:18.772Z,1.20
2022-09-02T01:56:18.752Z,1.20
2022-09-02T01:57:18.743Z,1.00
2022-09-02T01:58:18.761Z,1.00
2022-09-02T01:59:18.736Z,1.40
2022-09-02T02:00:18.709Z,1.10
2022-09-02T02:01:18.774Z,1.30
2022-09-02T02:02:18.757Z,1.30
2022-09-02T02:03:18.679Z,0.80
2022-09-02T02:04:18.662Z,1.20
2022-09-02T02:05:18.649Z,0.90
2022-09-02T02:06:18.659Z,1.10
2022-09-02T02:07:18.626Z,1.00
2022-09-02T02:08:18.616Z,1.10
2022-09-02T02:09:18.604Z,1.10
2022-09-02T02:10:18.593Z,1.10
2022-09-02T02:11:18.603Z,1.00
2022-09-02T02:12:18.590Z,0.80
2022-09-02T02:13:18.561Z,0.90
2022-09-02T02:14:18.548Z,1.10
2022-09-02T02:15:18.542Z,1.00
2022-09-02T02:16:18.576Z,1.00
2022-09-02T02:17:18.532Z,1.10
2022-09-02T02:18:18.507Z,0.90
2022-09-02T02:19:18.491Z,1.20
2022-09-02T02:20:18.501Z,1.10
2022-09-02T02:21:18.466Z,1.00
2022-09-02T02:22:18.459Z,0.90
2022-09-02T02:23:18.551Z,1.00
2022-09-02T02:24:18.434Z,1.00
2022-09-02T02:25:18.482Z,1.20
2022-09-02T02:26:18.425Z,1.10
2022-09-02T02:27:18.400Z,1.10
2022-09-02T02:28:18.423Z,1.30
2022-09-02T02:29:18.378Z,1.10
2022-09-02T02:30:18.366Z,1.00
2022-09-02T02:31:18.439Z,1.00
2022-09-02T02:32:18.345Z,1.10
2022-09-02T02:33:18.411Z,1.20
2022-09-02T02:34:18.341Z,0.90
2022-09-02T02:35:18.333Z,1.20
2022-09-02T02:36:18.297Z,1.00
2022-09-02T02:37:22.173Z,1.30
2022-09-02T02:38:19.295Z,1.30
2022-09-02T02:39:18.279Z,1.10
2022-09-02T02:40:18.357Z,1.00
2022-09-02T02:41:18.239Z,1.20
2022-09-02T02:42:18.231Z,1.10
2022-09-02T02:43:18.265Z,1.10
2022-09-02T02:44:18.207Z,1.00
2022-09-02T02:45:18.265Z,1.30
2022-09-02T02:46:18.238Z,1.30
2022-09-02T02:47:18.174Z,1.40
2022-09-02T02:48:18.299Z,1.50
2022-09-02T02:49:18.168Z,1.10
2022-09-02T02:50:18.159Z,1.20
2022-09-02T02:51:18.126Z,1.30
2022-09-02T02:52:18.117Z,1.10
2022-09-02T02:53:18.348Z,1.10
2022-09-02T02:54:18.093Z,0.90
2022-09-02T02:55:18.083Z,1.40
2022-09-02T02:56:18.071Z,1.30
2022-09-02T02:57:18.061Z,1.10
2022-09-02T02:58:18.072Z,1.20
2022-09-02T02:59:18.038Z,1.20
2022-09-02T03:00:18.314Z,1.30
2022-09-02T03:01:18.044Z,1.20
2022-09-02T03:02:18.159Z,1.20
2022-09-02T03:03:18.017Z,1.30
2022-09-02T03:04:17.980Z,1.20
2022-09-02T03:05:17.991Z,1.40
2022-09-02T03:06:22.908Z,1.10
2022-09-02T03:07:19.006Z,1.10
2022-09-02T03:08:17.935Z,1.20
2022-09-02T03:09:17.927Z,1.30
2022-09-02T03:10:17.933Z,1.20
2022-09-02T03:11:17.905Z,1.20
2022-09-02T03:12:17.887Z,1.30
2022-09-02T03:13:17.984Z,1.40
2022-09-02T03:14:17.866Z,1.30
2022-09-02T03:15:17.920Z,1.20
2022-09-02T03:16:17.915Z,1.20
2022-09-02T03:17:17.858Z,1.30
2022-09-02T03:18:17.818Z,1.30
2022-09-02T03:19:17.826Z,1.40
2022-09-02T03:20:17.817Z,1.30
2022-09-02T03:21:17.790Z,1.10
2022-09-02T03:22:17.774Z,0.90
2022-09-02T03:23:17.846Z,1.30
2022-09-02T03:24:17.751Z,1.20
2022-09-02T03:25:17.767Z,1.40
2022-09-02T03:26:18.883Z,1.40
2022-09-02T03:27:17.719Z,1.10
2022-09-02T03:28:17.706Z,1.50
2022-09-02T03:29:17.719Z,1.30
2022-09-02T03:30:17.705Z,1.30
2022-09-02T03:31:17.730Z,1.30
2022-09-02T03:32:17.662Z,1.30
2022-09-02T03:33:17.753Z,1.60
2022-09-02T03:34:17.638Z,1.50
2022-09-02T03:35:17.665Z,1.20
2022-09-02T03:36:17.620Z,1.20
2022-09-02T03:37:17.605Z,1.30
2022-09-02T03:38:17.596Z,1.00
2022-09-02T03:39:17.585Z,1.30
2022-09-02T03:40:17.633Z,1.10
2022-09-02T03:41:17.563Z,1.50
2022-09-02T03:42:19.645Z,1.30
2022-09-02T03:43:17.587Z,1.20
2022-09-02T03:44:17.549Z,1.20
2022-09-02T03:45:17.537Z,1.20
2022-09-02T03:46:17.604Z,1.40
2022-09-02T03:47:17.495Z,1.50
2022-09-02T03:48:17.503Z,1.20
2022-09-02T03:49:17.471Z,1.20
2022-09-02T03:50:17.486Z,1.20
2022-09-02T03:51:17.449Z,1.40
2022-09-02T03:52:17.436Z,1.40
2022-09-02T03:53:19.334Z,1.20
2022-09-02T03:54:17.416Z,1.30
2022-09-02T03:55:17.407Z,1.00
2022-09-02T03:56:17.483Z,1.50
2022-09-02T03:57:17.382Z,1.30
2022-09-02T03:58:17.392Z,1.30
2022-09-02T03:59:17.358Z,1.50
2022-09-02T04:00:17.347Z,1.50
2022-09-02T04:01:17.377Z,1.40
2022-09-02T04:02:17.653Z,1.30
2022-09-02T04:03:17.403Z,1.40
2022-09-02T04:04:22.184Z,1.30
2022-09-02T04:05:18.316Z,1.40
2022-09-02T04:06:17.279Z,1.30
2022-09-02T04:07:17.269Z,1.30
2022-09-02T04:08:17.259Z,1.40
2022-09-02T04:09:17.305Z,1.30
2022-09-02T04:10:17.266Z,1.20
2022-09-02T04:11:17.228Z,1.30
2022-09-02T04:12:17.222Z,1.30
2022-09-02T04:13:17.307Z,1.60
2022-09-02T04:14:17.211Z,1.40
2022-09-02T04:15:17.180Z,1.30
2022-09-02T04:16:17.228Z,1.30
2022-09-02T04:17:17.158Z,1.50
2022-09-02T04:18:17.146Z,1.30
2022-09-02T04:19:17.156Z,1.50
2022-09-02T04:20:17.121Z,1.20
2022-09-02T04:21:17.111Z,1.40
2022-09-02T04:22:17.100Z,1.30
2022-09-02T04:23:17.094Z,1.30
2022-09-02T04:24:17.103Z,1.30
2022-09-02T04:25:17.079Z,1.40
2022-09-02T04:26:17.054Z,1.60
2022-09-02T04:27:17.044Z,1.60
2022-09-02T04:28:17.055Z,1.50
2022-09-02T04:29:17.024Z,1.60
2022-09-02T04:30:17.010Z,1.40
2022-09-02T04:31:17.107Z,1.50
2022-09-02T04:32:16.992Z,1.90
2022-09-02T04:33:16.978Z,1.60
2022-09-02T04:34:16.991Z,1.40
2022-09-02T04:35:16.977Z,1.60
2022-09-02T04:36:16.947Z,1.70
2022-09-02T04:37:16.933Z,1.40
2022-09-02T04:38:16.925Z,1.30
2022-09-02T04:39:16.911Z,1.40
2022-09-02T04:40:17.002Z,1.30
2022-09-02T04:41:16.890Z,1.30
2022-09-02T04:42:16.878Z,1.40
2022-09-02T04:43:16.866Z,1.70
2022-09-02T04:44:16.858Z,1.50
2022-09-02T04:45:16.865Z,1.50
2022-09-02T04:46:17.000Z,1.50
2022-09-02T04:47:16.821Z,1.60
2022-09-02T04:48:16.813Z,1.50
2022-09-02T04:49:16.800Z,1.70
2022-09-02T04:50:16.817Z,1.50
2022-09-02T04:51:16.778Z,1.70
2022-09-02T04:52:16.765Z,1.60
2022-09-02T04:53:16.756Z,1.50
2022-09-02T04:54:16.766Z,1.40
2022-09-02T04:55:16.736Z,1.60
2022-09-02T04:56:16.725Z,1.50
2022-09-02T04:57:16.713Z,1.30
2022-09-02T04:58:16.709Z,1.70
2022-09-02T04:59:16.713Z,1.30
2022-09-02T05:00:16.702Z,1.60
2022-09-02T05:01:16.753Z,1.40
2022-09-02T05:02:16.817Z,1.50
2022-09-02T05:03:16.641Z,1.50
2022-09-02T05:04:16.650Z,1.40
2022-09-02T05:05:16.624Z,1.60
2022-09-02T05:06:16.630Z,1.60
2022-09-02T05:07:16.658Z,1.60
2022-09-02T05:08:16.628Z,1.60
2022-09-02T05:09:16.574Z,1.60
2022-09-02T05:10:16.588Z,1.70
2022-09-02T05:11:16.553Z,1.60
2022-09-02T05:12:16.538Z,1.70
2022-09-02T05:13:16.531Z,1.80
2022-09-02T05:14:16.516Z,1.80
2022-09-02T05:15:16.533Z,1.80
2022-09-02T05:16:16.590Z,1.70
2022-09-02T05:17:16.492Z,1.90
2022-09-02T05:18:16.470Z,1.50
2022-09-02T05:19:16.461Z,1.90
2022-09-02T05:20:16.451Z,1.80
2022-09-02T05:21:16.440Z,1.60
2022-09-02T05:22:16.450Z,1.60
2022-09-02T05:23:16.437Z,1.30
2022-09-02T05:24:16.427Z,1.60
2022-09-02T05:25:16.417Z,1.60
2022-09-02T05:26:16.380Z,2.10
2022-09-02T05:27:16.491Z,1.60
2022-09-02T05:28:16.358Z,3.00
2022-09-02T05:29:16.350Z,1.80
2022-09-02T05:30:16.359Z,2.20
2022-09-02T05:31:16.573Z,1.90
2022-09-02T05:32:16.314Z,2.20
2022-09-02T05:33:16.304Z,2.00
2022-09-02T05:34:16.295Z,1.90
2022-09-02T05:35:16.286Z,1.80
2022-09-02T05:36:16.290Z,1.80
2022-09-02T05:37:16.259Z,1.70
2022-09-02T05:38:16.266Z,1.70
2022-09-02T05:39:16.238Z,1.90
2022-09-02T05:40:16.280Z,2.00
2022-09-02T05:41:17.219Z,2.20
2022-09-02T05:42:16.204Z,1.90
2022-09-02T05:43:16.212Z,1.80
2022-09-02T05:44:16.179Z,2.20
2022-09-02T05:45:16.414Z,2.10
2022-09-02T05:46:16.372Z,2.10
2022-09-02T05:47:16.149Z,1.80
2022-09-02T05:48:16.134Z,2.40
2022-09-02T05:49:16.122Z,1.90
2022-09-02T05:50:16.109Z,2.10
2022-09-02T05:51:16.100Z,2.30
2022-09-02T05:52:16.108Z,2.50
2022-09-02T05:53:16.154Z,3.10
2022-09-02T05:54:16.065Z,3.70
2022-09-02T05:55:16.074Z,3.60
2022-09-02T05:56:16.040Z,3.70
2022-09-02T05:57:16.033Z,2.70
2022-09-02T05:58:16.022Z,2.20
2022-09-02T05:59:16.029Z,1.80
2022-09-02T06:00:18.051Z,2.00
2022-09-02T06:01:15.992Z,2.10
2022-09-02T06:02:16.102Z,2.10
2022-09-02T06:03:16.993Z,1.80
2022-09-02T06:04:16.001Z,2.20
2022-09-02T06:05:15.947Z,1.90
2022-09-02T06:06:15.933Z,2.00
2022-09-02T06:07:15.942Z,2.10
2022-09-02T06:08:15.905Z,2.40
2022-09-02T06:09:15.920Z,2.00
2022-09-02T06:10:16.013Z,1.90
2022-09-02T06:11:15.877Z,2.00
2022-09-02T06:12:15.860Z,1.90
2022-09-02T06:13:15.863Z,1.90
2022-09-02T06:14:16.035Z,1.80
2022-09-02T06:15:15.831Z,2.20
2022-09-02T06:16:15.909Z,2.30
2022-09-02T06:17:15.805Z,1.90
2022-09-02T06:18:15.793Z,2.00
2022-09-02T06:19:19.694Z,2.00
2022-09-02T06:20:15.770Z,2.20
2022-09-02T06:21:15.842Z,2.10
2022-09-02T06:22:15.775Z,1.70
2022-09-02T06:23:15.738Z,1.90
2022-09-02T06:24:15.725Z,1.90
2022-09-02T06:25:15.736Z,2.00
2022-09-02T06:26:15.701Z,2.10
2022-09-02T06:27:15.694Z,1.90
2022-09-02T06:28:15.682Z,1.50
2022-09-02T06:29:15.669Z,1.70
2022-09-02T06:30:15.685Z,1.80
2022-09-02T06:31:15.671Z,1.70
2022-09-02T06:32:15.634Z,1.90
2022-09-02T06:33:15.626Z,1.70
2022-09-02T06:34:15.640Z,1.50
2022-09-02T06:35:15.614Z,1.90
2022-09-02T06:36:15.591Z,1.90
2022-09-02T06:37:15.580Z,2.00
2022-09-02T06:38:15.588Z,2.20
2022-09-02T06:39:15.558Z,2.20
2022-09-02T06:40:15.651Z,1.80
2022-09-02T06:41:15.537Z,1.60
2022-09-02T06:42:15.544Z,1.80
2022-09-02T06:43:15.530Z,2.10
2022-09-02T06:44:15.498Z,2.00
2022-09-02T06:45:15.508Z,1.90
2022-09-02T06:46:15.527Z,1.60
2022-09-02T06:47:15.486Z,1.60
2022-09-02T06:48:15.476Z,1.90
2022-09-02T06:49:15.493Z,1.60
2022-09-02T06:50:15.430Z,1.80
2022-09-02T06:51:15.421Z,1.90
2022-09-02T06:52:15.438Z,1.80
2022-09-02T06:53:15.397Z,1.90
2022-09-02T06:54:15.389Z,2.10
2022-09-02T06:55:15.373Z,1.90
2022-09-02T06:56:15.385Z,2.00
2022-09-02T06:57:15.351Z,1.80
2022-09-02T06:58:15.339Z,1.90
2022-09-02T06:59:15.329Z,1.70
2022-09-02T07:00:15.335Z,2.20
2022-09-02T07:01:15.429Z,2.00
2022-09-02T07:02:15.367Z,2.10
2022-09-02T07:03:15.285Z,2.00
2022-09-02T07:04:15.272Z,2.10
2022-09-02T07:05:15.572Z,2.10
2022-09-02T07:06:15.252Z,2.20
2022-09-02T07:07:15.238Z,2.00
2022-09-02T07:08:15.235Z,2.00
2022-09-02T07:09:15.217Z,1.90
2022-09-02T07:10:15.256Z,2.10
2022-09-02T07:11:15.192Z,2.30
2022-09-02T07:12:15.185Z,2.20
2022-09-02T07:13:15.179Z,2.00
2022-09-02T07:14:15.161Z,1.80
2022-09-02T07:15:15.155Z,1.90
2022-09-02T07:16:20.434Z,2.20
2022-09-02T07:17:16.145Z,1.90
2022-09-02T07:18:15.276Z,2.10
2022-09-02T07:19:19.927Z,1.90
2022-09-02T07:20:16.090Z,2.20
2022-09-02T07:21:15.076Z,2.00
2022-09-02T07:22:15.078Z,2.00
2022-09-02T07:23:15.065Z,1.70
2022-09-02T07:24:15.293Z,1.80
2022-09-02T07:25:15.039Z,1.80
2022-09-02T07:26:15.027Z,2.00
2022-09-02T07:27:15.009Z,1.60
2022-09-02T07:28:15.309Z,1.70
2022-09-02T07:29:14.989Z,1.60
2022-09-02T07:30:14.999Z,1.90
2022-09-02T07:31:15.020Z,1.80
2022-09-02T07:32:14.955Z,1.80
2022-09-02T07:33:14.967Z,1.80
2022-09-02T07:34:14.936Z,1.80
2022-09-02T07:35:14.920Z,2.40
2022-09-02T07:36:14.912Z,2.10
2022-09-02T07:37:14.897Z,1.80
2022-09-02T07:38:14.909Z,2.00
2022-09-02T07:39:14.911Z,2.00
2022-09-02T07:40:14.897Z,2.40
2022-09-02T07:41:14.852Z,1.90
2022-09-02T07:42:14.976Z,2.00
2022-09-02T07:43:14.831Z,2.20
2022-09-02T07:44:14.822Z,1.60
2022-09-02T07:45:14.816Z,1.40
2022-09-02T07:46:14.858Z,1.50
2022-09-02T07:47:14.806Z,1.60
2022-09-02T07:48:14.778Z,1.70
2022-09-02T07:49:14.765Z,1.40
2022-09-02T07:50:17.075Z,2.20
2022-09-02T07:51:14.763Z,1.80
2022-09-02T07:52:14.751Z,1.90
2022-09-02T07:53:14.765Z,1.60
2022-09-02T07:54:14.712Z,1.30
2022-09-02T07:55:15.270Z,1.70
2022-09-02T07:56:14.689Z,1.80
2022-09-02T07:57:14.675Z,1.70
2022-09-02T07:58:16.042Z,1.50
2022-09-02T07:59:14.675Z,2.10
2022-09-02T08:00:14.643Z,1.80
2022-09-02T08:01:14.779Z,1.70
2022-09-02T08:02:14.695Z,1.70
2022-09-02T08:03:14.638Z,1.50
2022-09-02T08:04:14.598Z,1.60
2022-09-02T08:05:14.585Z,1.90
2022-09-02T08:06:14.594Z,1.50
2022-09-02T08:07:14.562Z,1.50
2022-09-02T08:08:14.572Z,1.50
2022-09-02T08:09:14.536Z,1.30
2022-09-02T08:10:14.528Z,1.40
2022-09-02T08:11:14.540Z,1.60
2022-09-02T08:12:17.728Z,1.70
2022-09-02T08:13:15.492Z,1.70
2022-09-02T08:14:14.485Z,1.50
2022-09-02T08:15:14.473Z,1.30
2022-09-02T08:16:14.766Z,1.30
2022-09-02T08:17:14.453Z,1.40
2022-09-02T08:18:21.792Z,1.20
2022-09-02T08:19:15.426Z,1.40
2022-09-02T08:20:14.414Z,1.30
2022-09-02T08:21:14.404Z,1.40
2022-09-02T08:22:14.415Z,1.40
2022-09-02T08:23:33.204Z,1.20
2022-09-02T08:24:15.381Z,1.30
2022-09-02T08:25:14.358Z,1.30
2022-09-02T08:26:14.350Z,1.30
2022-09-02T08:27:14.361Z,1.00
2022-09-02T08:28:14.432Z,1.30
2022-09-02T08:29:14.316Z,1.30
2022-09-02T08:30:14.304Z,1.30
2022-09-02T08:31:14.296Z,1.20
2022-09-02T08:32:14.335Z,1.30
2022-09-02T08:33:14.345Z,1.20
2022-09-02T08:34:14.259Z,1.30
2022-09-02T08:35:14.246Z,2.40
2022-09-02T08:36:14.256Z,1.20
2022-09-02T08:37:14.223Z,1.10
2022-09-02T08:38:14.259Z,1.20
2022-09-02T08:39:14.276Z,1.00
2022-09-02T08:40:14.301Z,1.10
2022-09-02T08:41:14.178Z,1.10
2022-09-02T08:42:14.169Z,1.00
2022-09-02T08:43:14.165Z,1.30
2022-09-02T08:44:14.167Z,1.20
2022-09-02T08:45:14.133Z,1.00
2022-09-02T08:46:14.252Z,1.10
2022-09-02T08:47:14.135Z,1.10
2022-09-02T08:48:14.104Z,1.20
2022-09-02T08:49:14.090Z,1.30
2022-09-02T08:50:14.081Z,1.30
2022-09-02T08:51:14.088Z,1.20
2022-09-02T08:52:17.669Z,1.00
2022-09-02T08:53:14.103Z,1.20
2022-09-02T08:54:14.035Z,1.00
2022-09-02T08:55:14.023Z,1.10
2022-09-02T08:56:14.014Z,1.00
2022-09-02T08:57:14.002Z,1.30
2022-09-02T08:58:13.992Z,1.00
2022-09-02T08:59:14.001Z,1.10
2022-09-02T09:00:13.979Z,1.10
2022-09-02T09:01:14.092Z,1.80
2022-09-02T09:02:16.773Z,1.20
2022-09-02T09:03:13.941Z,1.30
2022-09-02T09:04:14.158Z,1.50
2022-09-02T09:05:13.948Z,1.40
2022-09-02T09:06:13.909Z,1.50
2022-09-02T09:07:13.928Z,1.40
2022-09-02T09:08:14.801Z,1.00
2022-09-02T09:09:13.894Z,1.40
2022-09-02T09:10:13.865Z,1.20
2022-09-02T09:11:13.853Z,1.40
2022-09-02T09:12:13.847Z,0.90
2022-09-02T09:13:13.827Z,1.10
2022-09-02T09:14:13.839Z,1.20
2022-09-02T09:15:13.810Z,1.00
2022-09-02T09:16:13.921Z,1.20
2022-09-02T09:17:13.815Z,1.10
2022-09-02T09:18:13.787Z,1.00
2022-09-02T09:19:13.759Z,1.20
2022-09-02T09:20:13.800Z,1.10
2022-09-02T09:21:13.865Z,1.20
2022-09-02T09:22:13.727Z,1.30
2022-09-02T09:23:14.284Z,1.20
2022-09-02T09:24:13.704Z,1.00
2022-09-02T09:25:13.712Z,1.20
2022-09-02T09:26:13.719Z,1.00
2022-09-02T09:27:13.668Z,1.20
2022-09-02T09:28:13.681Z,1.20
2022-09-02T09:29:13.646Z,1.20
2022-09-02T09:30:15.473Z,1.20
2022-09-02T09:31:13.683Z,1.10
2022-09-02T09:32:13.636Z,1.00
2022-09-02T09:33:13.606Z,0.90
2022-09-02T09:34:13.594Z,1.10
2022-09-02T09:35:13.581Z,1.20
2022-09-02T09:36:13.766Z,1.10
2022-09-02T09:37:13.563Z,1.10
2022-09-02T09:38:13.552Z,0.90
2022-09-02T09:39:13.540Z,0.90
2022-09-02T09:40:13.601Z,0.80
2022-09-02T09:41:13.516Z,1.10
2022-09-02T09:42:13.510Z,1.00
2022-09-02T09:43:15.341Z,1.10
2022-09-02T09:44:13.505Z,1.20
2022-09-02T09:45:13.475Z,1.00
2022-09-02T09:46:13.541Z,1.10
2022-09-02T09:47:17.787Z,0.90
2022-09-02T09:48:13.446Z,1.20
2022-09-02T09:49:13.438Z,1.30
2022-09-02T09:50:13.419Z,1.10
2022-09-02T09:51:13.433Z,1.10
2022-09-02T09:52:13.397Z,1.20
2022-09-02T09:53:13.465Z,1.00
2022-09-02T09:54:13.375Z,0.90
2022-09-02T09:55:13.361Z,1.20
2022-09-02T09:56:13.353Z,1.10
2022-09-02T09:57:13.362Z,1.00
2022-09-02T09:58:13.333Z,1.00
2022-09-02T09:59:13.329Z,0.80
2022-09-02T10:00:13.331Z,1.20
2022-09-02T10:01:13.362Z,1.10
2022-09-02T10:02:13.325Z,1.20
2022-09-02T10:03:13.280Z,1.40
2022-09-02T10:04:39.140Z,1.20
2022-09-02T10:05:14.253Z,0.90
2022-09-02T10:06:13.265Z,0.90
2022-09-02T10:07:13.238Z,1.20
2022-09-02T10:08:15.494Z,0.90
2022-09-02T10:09:13.207Z,1.00
2022-09-02T10:10:13.199Z,0.90
2022-09-02T10:11:13.316Z,0.90
2022-09-02T10:12:13.237Z,0.90
2022-09-02T10:13:13.209Z,0.90
2022-09-02T10:14:13.159Z,1.00
2022-09-02T10:15:13.166Z,0.90
2022-09-02T10:16:13.177Z,1.10
2022-09-02T10:17:13.135Z,0.90
2022-09-02T10:18:13.110Z,0.80
2022-09-02T10:19:13.124Z,1.10
2022-09-02T10:20:13.108Z,1.00
2022-09-02T10:21:15.528Z,0.90
2022-09-02T10:22:13.092Z,0.90
2022-09-02T10:23:13.054Z,1.20
2022-09-02T10:24:13.047Z,1.00
2022-09-02T10:25:13.036Z,0.90
2022-09-02T10:26:13.069Z,1.10
2022-09-02T10:27:13.029Z,1.00
2022-09-02T10:28:13.002Z,1.10
2022-09-02T10:29:12.987Z,0.90
2022-09-02T10:30:13.000Z,1.30
2022-09-02T10:31:13.007Z,0.90
2022-09-02T10:32:12.955Z,1.10
2022-09-02T10:33:12.942Z,1.00
2022-09-02T10:34:12.933Z,0.90
2022-09-02T10:35:12.921Z,1.10
2022-09-02T10:36:18.895Z,1.00
2022-09-02T10:37:13.899Z,1.30
2022-09-02T10:38:13.023Z,1.10
2022-09-02T10:39:12.902Z,1.10
2022-09-02T10:40:12.904Z,1.00
2022-09-02T10:41:12.857Z,0.80
2022-09-02T10:42:12.855Z,1.00
2022-09-02T10:43:12.854Z,1.00
2022-09-02T10:44:12.827Z,1.10
2022-09-02T10:45:12.810Z,1.20
2022-09-02T10:46:12.857Z,1.30
2022-09-02T10:47:12.797Z,1.20
2022-09-02T10:48:12.784Z,1.10
2022-09-02T10:49:12.803Z,1.10
2022-09-02T10:50:12.757Z,1.10
2022-09-02T10:51:12.751Z,0.90
2022-09-02T10:52:12.775Z,0.90
2022-09-02T10:53:12.745Z,1.20
2022-09-02T10:54:12.713Z,0.90
2022-09-02T10:55:12.701Z,0.80
2022-09-02T10:56:12.690Z,1.00
2022-09-02T10:57:12.699Z,1.20
2022-09-02T10:58:12.674Z,1.00
2022-09-02T10:59:12.665Z,1.00
2022-09-02T11:00:12.670Z,0.90
2022-09-02T11:01:12.733Z,1.00
2022-09-02T11:02:12.656Z,1.00
2022-09-02T11:03:12.674Z,1.40
2022-09-02T11:04:12.602Z,1.20
2022-09-02T11:05:12.590Z,1.00
2022-09-02T11:06:12.586Z,1.00
2022-09-02T11:07:12.568Z,0.90
2022-09-02T11:08:12.579Z,1.00
2022-09-02T11:09:12.548Z,1.00
2022-09-02T11:10:12.537Z,0.90
2022-09-02T11:11:12.524Z,1.10
2022-09-02T11:12:12.514Z,1.00
2022-09-02T11:13:12.518Z,0.90
2022-09-02T11:14:12.489Z,1.00
2022-09-02T11:15:12.478Z,1.00
2022-09-02T11:16:12.588Z,1.00
2022-09-02T11:17:13.133Z,0.90
2022-09-02T11:19:12.434Z,1.10
2022-09-02T11:20:12.512Z,1.20
2022-09-02T11:21:12.432Z,0.90
2022-09-02T11:22:12.402Z,1.10
2022-09-02T11:23:12.389Z,1.10
2022-09-02T11:24:12.382Z,1.10
2022-09-02T11:25:12.387Z,1.10
2022-09-02T11:26:12.358Z,0.90
2022-09-02T11:27:25.896Z,1.10
2022-09-02T11:28:14.441Z,1.10
2022-09-02T11:29:12.325Z,1.00
2022-09-02T11:30:12.404Z,1.00
2022-09-02T11:31:12.301Z,1.10
2022-09-02T11:32:12.314Z,0.90
2022-09-02T11:33:12.283Z,1.10
2022-09-02T11:34:12.272Z,1.00
2022-09-02T11:35:12.265Z,1.00
2022-09-02T11:36:12.244Z,0.70
2022-09-02T11:37:13.147Z,1.00
2022-09-02T11:38:12.246Z,0.80
2022-09-02T11:39:12.234Z,0.90
2022-09-02T11:40:33.312Z,1.10
2022-09-02T11:42:13.242Z,1.00
2022-09-02T11:43:12.212Z,1.10
2022-09-02T11:44:12.157Z,0.90
2022-09-02T11:45:12.249Z,1.30
2022-09-02T11:46:12.179Z,0.90
2022-09-02T11:47:12.129Z,1.00
2022-09-02T11:48:12.115Z,1.00
2022-09-02T11:49:12.124Z,1.10
2022-09-02T11:50:12.169Z,0.90
2022-09-02T11:51:12.205Z,0.90
2022-09-02T11:52:12.141Z,0.90
2022-09-02T11:53:12.060Z,1.10
2022-09-02T11:54:12.068Z,1.00
2022-09-02T11:55:12.040Z,1.30
2022-09-02T11:56:12.049Z,1.10
2022-09-02T11:57:12.019Z,0.80
2022-09-02T11:58:12.003Z,0.80
2022-09-02T11:59:12.032Z,1.00
2022-09-02T12:00:12.015Z,1.10
2022-09-02T12:01:13.806Z,1.00
2022-09-02T12:02:11.960Z,1.10
2022-09-02T12:03:35.516Z,1.00
2022-09-02T12:05:13.048Z,0.90
2022-09-02T12:06:12.093Z,0.90
2022-09-02T12:07:12.050Z,1.00
2022-09-02T12:08:11.916Z,1.00
2022-09-02T12:09:11.886Z,0.60
2022-09-02T12:10:12.012Z,0.90
2022-09-02T12:11:11.864Z,0.80
2022-09-02T12:12:11.870Z,1.20
2022-09-02T12:13:11.842Z,1.20
2022-09-02T12:14:11.833Z,0.90
2022-09-02T12:15:11.861Z,1.10
2022-09-02T12:16:11.913Z,1.10
2022-09-02T12:17:11.800Z,0.80
2022-09-02T12:18:11.786Z,0.90
2022-09-02T12:19:11.779Z,0.90
2022-09-02T12:20:11.786Z,1.20
2022-09-02T12:21:16.350Z,1.10
2022-09-02T12:22:12.739Z,0.70
2022-09-02T12:23:11.732Z,1.20
2022-09-02T12:24:11.746Z,1.00
2022-09-02T12:25:11.712Z,0.80
2022-09-02T12:26:15.762Z,0.90
2022-09-02T12:27:11.689Z,0.70
2022-09-02T12:28:11.678Z,0.90
2022-09-02T12:29:12.716Z,0.80
2022-09-02T12:30:11.661Z,0.70
2022-09-02T12:31:11.645Z,1.00
2022-09-02T12:32:11.640Z,0.80
2022-09-02T12:33:11.641Z,1.10
2022-09-02T12:34:11.609Z,0.90
2022-09-02T12:35:11.601Z,1.00
2022-09-02T12:36:11.589Z,1.20
2022-09-02T12:37:11.601Z,0.90
2022-09-02T12:38:11.570Z,0.90
2022-09-02T12:39:11.558Z,1.00
2022-09-02T12:40:13.109Z,1.00
2022-09-02T12:41:13.089Z,0.90
2022-09-02T12:42:11.592Z,0.80
2022-09-02T12:43:11.534Z,1.10
2022-09-02T12:44:11.510Z,1.40
2022-09-02T12:45:11.491Z,0.90
2022-09-02T12:46:11.509Z,1.00
2022-09-02T12:47:11.509Z,3.90
2022-09-02T12:48:11.476Z,0.90
2022-09-02T12:49:11.451Z,1.00
2022-09-02T12:50:11.434Z,1.70
2022-09-02T12:51:11.430Z,1.40
2022-09-02T12:52:11.410Z,1.10
2022-09-02T12:53:11.423Z,0.90
2022-09-02T12:54:11.392Z,1.60
2022-09-02T12:55:11.379Z,0.80
2022-09-02T12:56:11.369Z,1.10
2022-09-02T12:57:11.367Z,1.00
2022-09-02T12:58:11.367Z,1.20
2022-09-02T12:59:11.339Z,1.10
2022-09-02T13:00:11.321Z,1.10
2022-09-02T13:01:11.312Z,1.10
2022-09-02T13:02:11.301Z,0.90
2022-09-02T13:03:11.563Z,0.90
2022-09-02T13:04:11.288Z,0.90
2022-09-02T13:05:11.276Z,1.00
2022-09-02T13:06:11.256Z,0.90
2022-09-02T13:07:11.271Z,0.80
2022-09-02T13:08:11.255Z,1.10
2022-09-02T13:09:11.281Z,1.00
2022-09-02T13:10:11.213Z,0.90
2022-09-02T13:11:11.205Z,0.70
2022-09-02T13:12:11.190Z,0.80
2022-09-02T13:13:11.201Z,0.80
2022-09-02T13:14:11.170Z,0.80
2022-09-02T13:15:11.157Z,0.90
2022-09-02T13:16:15.531Z,1.20
2022-09-02T13:17:35.003Z,0.90
2022-09-02T13:18:12.143Z,0.80
2022-09-02T13:19:11.628Z,0.90
2022-09-02T13:20:11.356Z,1.30
2022-09-02T13:21:11.113Z,1.00